Buoy 46770

sailwx.info

Track history (hours):
 
Tides and Currents Weather Stations Pressure Air Temp Water Temp Dewpoint Dewpoint Depression Visibility Wind Speed Wind Dir Waves Ship Positions

Drifting buoy 46770

Last reported at 2016-Jul-24 00:00 UTC. Time now 2016-Jul-24 01:07 UTC.
Position N 39°43' W 152°16'.

Barometer 1025.2 mb
Water temperature 19.4 ° C

Date/timePositionNaut miles runAvg speedWind from/ knotsBaromVisibWave heightAir tempDewpointWater temp
2016-Jul-24 00:00N 39°43' W 152°16'0 0.0 1025.2 19.4
2016-Jul-23 22:00N 39°43' W 152°16'0 0.1 1025.5 19.2
2016-Jul-23 20:00N 39°43' W 152°16'0 0.2 1025.5 19.1
2016-Jul-23 18:00N 39°42' W 152°16'0 0.2 1025.4 19.1
2016-Jul-23 17:00N 39°42' W 152°17'0 0.0 1025.0 19.1
2016-Jul-23 16:00N 39°42' W 152°17'0 0.2 1024.7 19.1
2016-Jul-23 15:00N 39°42' W 152°16'0 0.2 1024.5 19.2
2016-Jul-23 14:00N 39°42' W 152°16'0 0.1 1024.3 19.2
2016-Jul-23 13:00N 39°42' W 152°16'1 1.2 1024.3 19.2
2016-Jul-23 12:00N 39°43' W 152°15'0 0.1 1024.5 19.2
2016-Jul-23 06:00N 39°43' W 152°15'0 0.2 1024.8 19.3
2016-Jul-23 04:00N 39°42' W 152°15'1 0.7 1024.4 19.3
2016-Jul-23 03:00N 39°42' W 152°16'1 0.7 1024.2 19.3
2016-Jul-23 02:00N 39°42' W 152°15'0 0.1 1024.0 19.3
2016-Jul-23 00:00N 39°42' W 152°14'1 0.3 1024.2 19.3
2016-Jul-22 22:00N 39°41' W 152°14'1 0.6 1024.7 19.3
2016-Jul-22 20:00N 39°42' W 152°13'1 0.3 1024.7 19.2
2016-Jul-22 18:00N 39°43' W 152°13'0 0.4 1024.9 19.2
2016-Jul-22 17:00N 39°43' W 152°13'0 0.4 1024.8 19.2
2016-Jul-22 16:00N 39°43' W 152°13'1 0.7 1024.8 19.2
2016-Jul-22 15:00N 39°43' W 152°13'1 0.5 1024.8 19.2
2016-Jul-22 14:00N 39°43' W 152°12'1 0.7 1024.7 19.2
2016-Jul-22 13:00N 39°43' W 152°13'1 1.0 1024.9 19.2
2016-Jul-22 12:00N 39°44' W 152°12'0 0.0 1024.9 19.2
2016-Jul-22 08:00N 39°44' W 152°12'1 0.4 1026.3 19.3
2016-Jul-22 06:00N 39°45' W 152°12'0 0.1 1026.6 19.3
2016-Jul-22 05:00N 39°45' W 152°12'0 0.2 1026.6 19.4
2016-Jul-22 04:00N 39°45' W 152°12'0 0.5 1026.9 19.4
2016-Jul-22 03:00N 39°45' W 152°11'1 1.0 1027.1 19.4
2016-Jul-22 02:00N 39°46' W 152°10'0 0.0 1027.4 19.4
2016-Jul-22 01:00N 39°46' W 152°10'0 0.2 1027.8 19.4
2016-Jul-22 00:00N 39°46' W 152°11'0 0.4 1028.3 19.4
2016-Jul-21 23:00N 39°46' W 152°10'0 0.0 1028.6 19.3
2016-Jul-21 22:00N 39°46' W 152°10'1 0.6 1028.8 19.3
2016-Jul-21 20:00N 39°47' W 152°09'0 0.4 1029.3 19.1
2016-Jul-21 19:00N 39°47' W 152°09'0 0.0 1029.5 19.1
2016-Jul-21 18:00N 39°47' W 152°09'0 0.3 1029.8 19.1
2016-Jul-21 17:00N 39°47' W 152°09'1 0.8 1029.7 19.2
2016-Jul-21 16:00N 39°48' W 152°09'1 0.5 1029.8 19.2
2016-Jul-21 15:00N 39°49' W 152°09'0 0.3 1029.8 19.2
2016-Jul-21 14:00N 39°49' W 152°08'1 1.1 1030.0 19.2
2016-Jul-21 13:00N 39°50' W 152°09'1 0.5 1030.4 19.3
2016-Jul-21 12:00N 39°50' W 152°09'0 0.4 1030.7 19.3
2016-Jul-21 11:00N 39°50' W 152°09'1 0.1 1031.0 19.3
2016-Jul-21 07:00N 39°50' W 152°09'1 0.9 1032.8 19.4
2016-Jul-21 06:00N 39°51' W 152°08'1 0.5 1032.3 19.4
2016-Jul-21 05:00N 39°51' W 152°09'1 0.7 1032.4 19.4
2016-Jul-21 04:00N 39°51' W 152°08'0 0.3 1032.3 19.5
2016-Jul-21 03:00N 39°51' W 152°08'0 0.2 1032.6 19.5
2016-Jul-21 02:00N 39°52' W 152°08'0 0.4 1033.0 19.5
2016-Jul-21 01:00N 39°51' W 152°08'0 0.4 1033.2 19.5
2016-Jul-21 00:00N 39°51' W 152°08'0 0.1 1033.4 19.5
2016-Jul-20 23:00N 39°51' W 152°07'1 0.6 1033.8 19.4
2016-Jul-20 21:00N 39°52' W 152°06'1 0.5 1034.2 19.3
2016-Jul-20 19:00N 39°53' W 152°06'0 0.2 1034.3 19.3
2016-Jul-20 17:00N 39°54' W 152°07'1 0.5 1034.0 19.3
2016-Jul-20 16:00N 39°54' W 152°07'0 0.3 1034.0 19.3
2016-Jul-20 15:00N 39°54' W 152°07'0 0.0 1033.8 19.3
2016-Jul-20 14:00N 39°54' W 152°07'0 0.0 1033.6 19.3
2016-Jul-20 13:00N 39°54' W 152°07'0 0.1 1034.0 19.3
2016-Jul-20 11:00N 39°53' W 152°07'1 0.3 1034.4 19.3
2016-Jul-20 08:00N 39°53' W 152°06'1 0.5 1035.1 19.4
2016-Jul-20 06:00N 39°53' W 152°05'1 1.0 1034.7 19.4
2016-Jul-20 05:00N 39°54' W 152°04'1 0.2 1034.7 19.4
2016-Jul-20 02:00N 39°55' W 152°04'0 0.3 1035.4 19.5
2016-Jul-20 01:00N 39°55' W 152°04'1 0.7 1035.8 19.5
2016-Jul-20 00:00N 39°56' W 152°04'1 0.6 1036.1 19.4
2016-Jul-19 23:00N 39°56' W 152°04'0 0.1 1036.5 19.4
2016-Jul-19 19:00N 39°56' W 152°04'0 0.0 1037.1 19.3
2016-Jul-19 18:00N 39°56' W 152°04'0 0.3 1037.4 19.3
2016-Jul-19 17:00N 39°56' W 152°05'0 0.4 1037.3 19.3
2016-Jul-19 16:00N 39°56' W 152°04'0 0.4 1037.2 19.3
2016-Jul-19 15:00N 39°56' W 152°04'0 0.0 1037.2 19.3
2016-Jul-19 14:00N 39°56' W 152°04'0 0.1 1037.1 19.3
2016-Jul-19 13:00N 39°56' W 152°04'1 0.4 1037.3 19.3
2016-Jul-19 11:00N 39°57' W 152°03'0 0.0 1037.8 19.3
2016-Jul-19 08:00N 39°57' W 152°03'1 0.5 1038.1 19.3
2016-Jul-19 07:00N 39°57' W 152°03'0 0.4 1038.0 19.3
2016-Jul-19 06:00N 39°57' W 152°03'1 0.6 1037.7 19.4
2016-Jul-19 05:00N 39°58' W 152°03'0 0.1 1037.5 19.4
2016-Jul-19 04:00N 39°58' W 152°03'0 0.4 1037.2 19.4
2016-Jul-19 03:00N 39°58' W 152°04'0 0.0 1037.4 19.4
2016-Jul-19 02:00N 39°58' W 152°04'1 1.0 1037.7 19.4
2016-Jul-19 01:00N 39°57' W 152°03'1 0.4 1037.9 19.4
2016-Jul-18 23:00N 39°56' W 152°03'1 0.3 1038.3 19.4
2016-Jul-18 21:00N 39°56' W 152°02'1 0.4 1038.3 19.3
2016-Jul-18 18:00N 39°56' W 152°00'0 0.0 1038.2 19.3
2016-Jul-18 17:00N 39°56' W 152°00'0 0.0 1037.8 19.3
2016-Jul-18 16:00N 39°56' W 152°00'1 0.6 1037.6 19.3
2016-Jul-18 15:00N 39°56' W 152°01'0 0.2 1037.2 19.3
2016-Jul-18 14:00N 39°57' W 152°01'0 0.3 1037.1 19.3
2016-Jul-18 13:00N 39°57' W 152°01'0 0.1 1037.0 19.4
2016-Jul-18 12:00N 39°57' W 152°01'1 0.5 1037.2 19.4
2016-Jul-18 11:00N 39°56' W 152°01'1 0.3 1037.5 19.4
2016-Jul-18 08:00N 39°55' W 152°01'0 0.0 1037.7 19.4
2016-Jul-18 07:00N 39°55' W 152°01'0 0.0 1037.5 19.5
2016-Jul-18 06:00N 39°55' W 152°01'1 0.7 1037.1 19.5
2016-Jul-18 05:00N 39°55' W 152°01'1 1.0 1036.7 19.6
2016-Jul-18 04:00N 39°54' W 152°00'0 0.0 1036.6 19.6
2016-Jul-18 03:00N 39°54' W 152°00'1 0.6 1036.3 19.6
2016-Jul-18 02:00N 39°54' W 152°00'1 0.7 1036.6 19.6
2016-Jul-18 01:00N 39°53' W 151°59'0 0.1 1036.6 19.6
2016-Jul-17 23:00N 39°53' W 151°59'1 0.4 1036.4 19.6
2016-Jul-17 20:00N 39°53' W 151°57'0 0.2 1036.6 19.5
2016-Jul-17 18:00N 39°53' W 151°58'0 0.2 1036.3 19.5
2016-Jul-17 16:00N 39°52' W 151°58'1 0.8 1036.0 19.5
2016-Jul-17 15:00N 39°52' W 151°58'0 0.0 1035.6 19.5
2016-Jul-17 14:00N 39°52' W 151°58'0 0.4 1034.9 19.5
2016-Jul-17 13:00N 39°51' W 151°58'1 1.3 1034.8 19.6
2016-Jul-17 12:00N 39°50' W 151°57'0 0.0 1034.9 19.6
2016-Jul-17 08:00N 39°50' W 151°57'0 0.3 1035.3 19.7
2016-Jul-17 07:00N 39°51' W 151°57'0 0.2 1035.0 19.7
2016-Jul-17 06:00N 39°51' W 151°57'0 0.3 1034.7 19.7
2016-Jul-17 05:00N 39°51' W 151°57'0 0.4 1034.3 19.7
2016-Jul-17 04:00N 39°50' W 151°57'1 0.7 1034.1 19.7
2016-Jul-17 03:00N 39°50' W 151°57'0 0.3 1034.1 19.8
2016-Jul-17 02:00N 39°50' W 151°57'0 0.2 1034.1 19.8
2016-Jul-17 01:00N 39°49' W 151°57'1 0.4 1034.2 19.8
2016-Jul-16 23:00N 39°49' W 151°57'1 0.6 1034.6 19.8
2016-Jul-16 22:00N 39°48' W 151°57'0 0.0 1034.5 19.8
2016-Jul-16 21:00N 39°48' W 151°57'1 0.3 1034.4 19.7
2016-Jul-16 18:00N 39°47' W 151°57'1 0.3 1033.8 19.7
2016-Jul-16 16:00N 39°47' W 151°56'0 0.4 1033.2 19.7
2016-Jul-16 15:00N 39°47' W 151°56'1 0.7 1033.1 19.7
2016-Jul-16 14:00N 39°46' W 151°57'0 0.0 1032.9 19.7
2016-Jul-16 13:00N 39°46' W 151°57'1 1.1 1033.1 19.8
2016-Jul-16 12:00N 39°45' W 151°56'0 0.1 1033.3 19.8
2016-Jul-16 07:00N 39°45' W 151°56'0 0.3 1033.7 20.0
2016-Jul-16 06:00N 39°46' W 151°56'1 0.6 1033.2 20.1
2016-Jul-16 05:00N 39°45' W 151°56'1 0.8 1033.0 20.2
2016-Jul-16 04:00N 39°45' W 151°55'1 1.1 1032.8 20.2
2016-Jul-16 03:00N 39°45' W 151°56'0 0.3 1032.5 20.3
2016-Jul-16 02:00N 39°45' W 151°55'0 0.2 1032.6 20.2
2016-Jul-16 01:00N 39°45' W 151°56'1 0.5 1032.6 20.2
2016-Jul-16 00:00N 39°44' W 151°55'0 0.4 1032.9 20.2
2016-Jul-15 23:00N 39°44' W 151°56'0 0.0 1033.1 20.0
2016-Jul-15 22:00N 39°44' W 151°56'0 0.4 1033.1 19.9
2016-Jul-15 21:00N 39°44' W 151°56'1 0.3 1032.9 19.8
2016-Jul-15 19:00N 39°43' W 151°57'0 0.0 1032.5 19.6
2016-Jul-15 18:00N 39°43' W 151°57'0 0.1 1032.4 19.5
2016-Jul-15 17:00N 39°43' W 151°57'0 0.2 1032.3 19.5
2016-Jul-15 15:00N 39°43' W 151°56'0 0.3 1031.6 19.5
2016-Jul-15 14:00N 39°43' W 151°57'1 0.4 1031.4 19.5
2016-Jul-15 12:00N 39°42' W 151°57'0 0.0 1031.4 19.6
2016-Jul-15 09:00N 39°42' W 151°57'0 0.0 1031.5 19.6
2016-Jul-15 08:00N 39°42' W 151°57'0 0.2 1031.4 19.6
2016-Jul-15 07:00N 39°42' W 151°57'0 0.3 1031.1 19.6
2016-Jul-15 06:00N 39°42' W 151°57'0 0.1 1030.4 19.6
2016-Jul-15 05:00N 39°42' W 151°57'0 0.2 1029.8 19.7
2016-Jul-15 04:00N 39°42' W 151°57'1 0.6 1029.5 19.8
2016-Jul-15 03:00N 39°42' W 151°58'0 0.3 1029.1 19.8
2016-Jul-15 02:00N 39°42' W 151°57'1 0.5 1029.1 19.8
2016-Jul-15 01:00N 39°41' W 151°58'0 0.1 1029.2 19.7
2016-Jul-15 00:00N 39°41' W 151°58'1 0.4 1029.2 19.6
2016-Jul-14 22:00N 39°41' W 151°59'1 1.1 1029.4 19.4
2016-Jul-14 21:00N 39°40' W 152°00'0 0.0 1029.4 19.3
2016-Jul-14 20:00N 39°40' W 152°00'0 0.3 1029.3 19.2
2016-Jul-14 19:00N 39°40' W 151°60'1 0.9 1028.8 19.2
2016-Jul-14 18:00N 39°39' W 152°00'0 0.3 1028.6 19.2
2016-Jul-14 17:00N 39°39' W 152°00'0 0.1 1028.1 19.2
2016-Jul-14 16:00N 39°39' W 152°00'0 0.4 1027.7 19.1
2016-Jul-14 15:00N 39°39' W 152°00'0 0.3 1027.3 19.1
2016-Jul-14 14:00N 39°39' W 152°00'2 0.8 1026.9 19.2
2016-Jul-14 12:00N 39°39' W 152°02'0 0.1 1027.0 19.2
2016-Jul-14 08:00N 39°39' W 152°02'0 0.5 1026.2 19.4
2016-Jul-14 07:00N 39°39' W 152°03'1 0.8 1025.8 19.4
2016-Jul-14 06:00N 39°39' W 152°04'1 0.7 1025.2 19.4
2016-Jul-14 04:00N 39°39' W 152°05'0 0.3 1024.3 19.4
2016-Jul-14 03:00N 39°39' W 152°06'1 1.2 1024.1 19.4
2016-Jul-14 02:00N 39°38' W 152°07'1 0.7 1024.1 19.4
2016-Jul-14 00:00N 39°37' W 152°08'   1024.3 19.3
Track history (hours):
 
Tides and Currents Weather Stations Pressure Air Temp Water Temp Dewpoint Dewpoint Depression Visibility Wind Speed Wind Dir Waves Ship Positions

Drifting buoy 46770

Last reported at 2016-Jul-24 00:00 UTC. Time now 2016-Jul-24 01:07 UTC.
Position N 39°43' W 152°16'.

Barometer 1025.2 mb
Water temperature 19.4 ° C

Date/timePositionNaut miles runAvg speedWind from/ knotsBaromVisibWave heightAir tempDewpointWater temp
2016-Jul-24 00:00N 39°43' W 152°16'0 0.0 1025.2 19.4
2016-Jul-23 22:00N 39°43' W 152°16'0 0.1 1025.5 19.2
2016-Jul-23 20:00N 39°43' W 152°16'0 0.2 1025.5 19.1
2016-Jul-23 18:00N 39°42' W 152°16'0 0.2 1025.4 19.1
2016-Jul-23 17:00N 39°42' W 152°17'0 0.0 1025.0 19.1
2016-Jul-23 16:00N 39°42' W 152°17'0 0.2 1024.7 19.1
2016-Jul-23 15:00N 39°42' W 152°16'0 0.2 1024.5 19.2
2016-Jul-23 14:00N 39°42' W 152°16'0 0.1 1024.3 19.2
2016-Jul-23 13:00N 39°42' W 152°16'1 1.2 1024.3 19.2
2016-Jul-23 12:00N 39°43' W 152°15'0 0.1 1024.5 19.2
2016-Jul-23 06:00N 39°43' W 152°15'0 0.2 1024.8 19.3
2016-Jul-23 04:00N 39°42' W 152°15'1 0.7 1024.4 19.3
2016-Jul-23 03:00N 39°42' W 152°16'1 0.7 1024.2 19.3
2016-Jul-23 02:00N 39°42' W 152°15'0 0.1 1024.0 19.3
2016-Jul-23 00:00N 39°42' W 152°14'1 0.3 1024.2 19.3
2016-Jul-22 22:00N 39°41' W 152°14'1 0.6 1024.7 19.3
2016-Jul-22 20:00N 39°42' W 152°13'1 0.3 1024.7 19.2
2016-Jul-22 18:00N 39°43' W 152°13'0 0.4 1024.9 19.2
2016-Jul-22 17:00N 39°43' W 152°13'0 0.4 1024.8 19.2
2016-Jul-22 16:00N 39°43' W 152°13'1 0.7 1024.8 19.2
2016-Jul-22 15:00N 39°43' W 152°13'1 0.5 1024.8 19.2
2016-Jul-22 14:00N 39°43' W 152°12'1 0.7 1024.7 19.2
2016-Jul-22 13:00N 39°43' W 152°13'1 1.0 1024.9 19.2
2016-Jul-22 12:00N 39°44' W 152°12'0 0.0 1024.9 19.2
2016-Jul-22 08:00N 39°44' W 152°12'1 0.4 1026.3 19.3
2016-Jul-22 06:00N 39°45' W 152°12'0 0.1 1026.6 19.3
2016-Jul-22 05:00N 39°45' W 152°12'0 0.2 1026.6 19.4
2016-Jul-22 04:00N 39°45' W 152°12'0 0.5 1026.9 19.4
2016-Jul-22 03:00N 39°45' W 152°11'1 1.0 1027.1 19.4
2016-Jul-22 02:00N 39°46' W 152°10'0 0.0 1027.4 19.4
2016-Jul-22 01:00N 39°46' W 152°10'0 0.2 1027.8 19.4
2016-Jul-22 00:00N 39°46' W 152°11'0 0.4 1028.3 19.4
2016-Jul-21 23:00N 39°46' W 152°10'0 0.0 1028.6 19.3
2016-Jul-21 22:00N 39°46' W 152°10'1 0.6 1028.8 19.3
2016-Jul-21 20:00N 39°47' W 152°09'0 0.4 1029.3 19.1
2016-Jul-21 19:00N 39°47' W 152°09'0 0.0 1029.5 19.1
2016-Jul-21 18:00N 39°47' W 152°09'0 0.3 1029.8 19.1
2016-Jul-21 17:00N 39°47' W 152°09'1 0.8 1029.7 19.2
2016-Jul-21 16:00N 39°48' W 152°09'1 0.5 1029.8 19.2
2016-Jul-21 15:00N 39°49' W 152°09'0 0.3 1029.8 19.2
2016-Jul-21 14:00N 39°49' W 152°08'1 1.1 1030.0 19.2
2016-Jul-21 13:00N 39°50' W 152°09'1 0.5 1030.4 19.3
2016-Jul-21 12:00N 39°50' W 152°09'0 0.4 1030.7 19.3
2016-Jul-21 11:00N 39°50' W 152°09'1 0.1 1031.0 19.3
2016-Jul-21 07:00N 39°50' W 152°09'1 0.9 1032.8 19.4
2016-Jul-21 06:00N 39°51' W 152°08'1 0.5 1032.3 19.4
2016-Jul-21 05:00N 39°51' W 152°09'1 0.7 1032.4 19.4
2016-Jul-21 04:00N 39°51' W 152°08'0 0.3 1032.3 19.5
2016-Jul-21 03:00N 39°51' W 152°08'0 0.2 1032.6 19.5
2016-Jul-21 02:00N 39°52' W 152°08'0 0.4 1033.0 19.5
2016-Jul-21 01:00N 39°51' W 152°08'0 0.4 1033.2 19.5
2016-Jul-21 00:00N 39°51' W 152°08'0 0.1 1033.4 19.5
2016-Jul-20 23:00N 39°51' W 152°07'1 0.6 1033.8 19.4
2016-Jul-20 21:00N 39°52' W 152°06'1 0.5 1034.2 19.3
2016-Jul-20 19:00N 39°53' W 152°06'0 0.2 1034.3 19.3
2016-Jul-20 17:00N 39°54' W 152°07'1 0.5 1034.0 19.3
2016-Jul-20 16:00N 39°54' W 152°07'0 0.3 1034.0 19.3
2016-Jul-20 15:00N 39°54' W 152°07'0 0.0 1033.8 19.3
2016-Jul-20 14:00N 39°54' W 152°07'0 0.0 1033.6 19.3
2016-Jul-20 13:00N 39°54' W 152°07'0 0.1 1034.0 19.3
2016-Jul-20 11:00N 39°53' W 152°07'1 0.3 1034.4 19.3
2016-Jul-20 08:00N 39°53' W 152°06'1 0.5 1035.1 19.4
2016-Jul-20 06:00N 39°53' W 152°05'1 1.0 1034.7 19.4
2016-Jul-20 05:00N 39°54' W 152°04'1 0.2 1034.7 19.4
2016-Jul-20 02:00N 39°55' W 152°04'0 0.3 1035.4 19.5
2016-Jul-20 01:00N 39°55' W 152°04'1 0.7 1035.8 19.5
2016-Jul-20 00:00N 39°56' W 152°04'1 0.6 1036.1 19.4
2016-Jul-19 23:00N 39°56' W 152°04'0 0.1 1036.5 19.4
2016-Jul-19 19:00N 39°56' W 152°04'0 0.0 1037.1 19.3
2016-Jul-19 18:00N 39°56' W 152°04'0 0.3 1037.4 19.3
2016-Jul-19 17:00N 39°56' W 152°05'0 0.4 1037.3 19.3
2016-Jul-19 16:00N 39°56' W 152°04'0 0.4 1037.2 19.3
2016-Jul-19 15:00N 39°56' W 152°04'0 0.0 1037.2 19.3
2016-Jul-19 14:00N 39°56' W 152°04'0 0.1 1037.1 19.3
2016-Jul-19 13:00N 39°56' W 152°04'1 0.4 1037.3 19.3
2016-Jul-19 11:00N 39°57' W 152°03'0 0.0 1037.8 19.3
2016-Jul-19 08:00N 39°57' W 152°03'1 0.5 1038.1 19.3
2016-Jul-19 07:00N 39°57' W 152°03'0 0.4 1038.0 19.3
2016-Jul-19 06:00N 39°57' W 152°03'1 0.6 1037.7 19.4
2016-Jul-19 05:00N 39°58' W 152°03'0 0.1 1037.5 19.4
2016-Jul-19 04:00N 39°58' W 152°03'0 0.4 1037.2 19.4
2016-Jul-19 03:00N 39°58' W 152°04'0 0.0 1037.4 19.4
2016-Jul-19 02:00N 39°58' W 152°04'1 1.0 1037.7 19.4
2016-Jul-19 01:00N 39°57' W 152°03'1 0.4 1037.9 19.4
2016-Jul-18 23:00N 39°56' W 152°03'1 0.3 1038.3 19.4
2016-Jul-18 21:00N 39°56' W 152°02'1 0.4 1038.3 19.3
2016-Jul-18 18:00N 39°56' W 152°00'0 0.0 1038.2 19.3
2016-Jul-18 17:00N 39°56' W 152°00'0 0.0 1037.8 19.3
2016-Jul-18 16:00N 39°56' W 152°00'1 0.6 1037.6 19.3
2016-Jul-18 15:00N 39°56' W 152°01'0 0.2 1037.2 19.3
2016-Jul-18 14:00N 39°57' W 152°01'0 0.3 1037.1 19.3
2016-Jul-18 13:00N 39°57' W 152°01'0 0.1 1037.0 19.4
2016-Jul-18 12:00N 39°57' W 152°01'1 0.5 1037.2 19.4
2016-Jul-18 11:00N 39°56' W 152°01'1 0.3 1037.5 19.4
2016-Jul-18 08:00N 39°55' W 152°01'0 0.0 1037.7 19.4
2016-Jul-18 07:00N 39°55' W 152°01'0 0.0 1037.5 19.5
2016-Jul-18 06:00N 39°55' W 152°01'1 0.7 1037.1 19.5
2016-Jul-18 05:00N 39°55' W 152°01'1 1.0 1036.7 19.6
2016-Jul-18 04:00N 39°54' W 152°00'0 0.0 1036.6 19.6
2016-Jul-18 03:00N 39°54' W 152°00'1 0.6 1036.3 19.6
2016-Jul-18 02:00N 39°54' W 152°00'1 0.7 1036.6 19.6
2016-Jul-18 01:00N 39°53' W 151°59'0 0.1 1036.6 19.6
2016-Jul-17 23:00N 39°53' W 151°59'1 0.4 1036.4 19.6
2016-Jul-17 20:00N 39°53' W 151°57'0 0.2 1036.6 19.5
2016-Jul-17 18:00N 39°53' W 151°58'0 0.2 1036.3 19.5
2016-Jul-17 16:00N 39°52' W 151°58'1 0.8 1036.0 19.5
2016-Jul-17 15:00N 39°52' W 151°58'0 0.0 1035.6 19.5
2016-Jul-17 14:00N 39°52' W 151°58'0 0.4 1034.9 19.5
2016-Jul-17 13:00N 39°51' W 151°58'1 1.3 1034.8 19.6
2016-Jul-17 12:00N 39°50' W 151°57'0 0.0 1034.9 19.6
2016-Jul-17 08:00N 39°50' W 151°57'0 0.3 1035.3 19.7
2016-Jul-17 07:00N 39°51' W 151°57'0 0.2 1035.0 19.7
2016-Jul-17 06:00N 39°51' W 151°57'0 0.3 1034.7 19.7
2016-Jul-17 05:00N 39°51' W 151°57'0 0.4 1034.3 19.7
2016-Jul-17 04:00N 39°50' W 151°57'1 0.7 1034.1 19.7
2016-Jul-17 03:00N 39°50' W 151°57'0 0.3 1034.1 19.8
2016-Jul-17 02:00N 39°50' W 151°57'0 0.2 1034.1 19.8
2016-Jul-17 01:00N 39°49' W 151°57'1 0.4 1034.2 19.8
2016-Jul-16 23:00N 39°49' W 151°57'1 0.6 1034.6 19.8
2016-Jul-16 22:00N 39°48' W 151°57'0 0.0 1034.5 19.8
2016-Jul-16 21:00N 39°48' W 151°57'1 0.3 1034.4 19.7
2016-Jul-16 18:00N 39°47' W 151°57'1 0.3 1033.8 19.7
2016-Jul-16 16:00N 39°47' W 151°56'0 0.4 1033.2 19.7
2016-Jul-16 15:00N 39°47' W 151°56'1 0.7 1033.1 19.7
2016-Jul-16 14:00N 39°46' W 151°57'0 0.0 1032.9 19.7
2016-Jul-16 13:00N 39°46' W 151°57'1 1.1 1033.1 19.8
2016-Jul-16 12:00N 39°45' W 151°56'0 0.1 1033.3 19.8
2016-Jul-16 07:00N 39°45' W 151°56'0 0.3 1033.7 20.0
2016-Jul-16 06:00N 39°46' W 151°56'1 0.6 1033.2 20.1
2016-Jul-16 05:00N 39°45' W 151°56'1 0.8 1033.0 20.2
2016-Jul-16 04:00N 39°45' W 151°55'1 1.1 1032.8 20.2
2016-Jul-16 03:00N 39°45' W 151°56'0 0.3 1032.5 20.3
2016-Jul-16 02:00N 39°45' W 151°55'0 0.2 1032.6 20.2
2016-Jul-16 01:00N 39°45' W 151°56'1 0.5 1032.6 20.2
2016-Jul-16 00:00N 39°44' W 151°55'0 0.4 1032.9 20.2
2016-Jul-15 23:00N 39°44' W 151°56'0 0.0 1033.1 20.0
2016-Jul-15 22:00N 39°44' W 151°56'0 0.4 1033.1 19.9
2016-Jul-15 21:00N 39°44' W 151°56'1 0.3 1032.9 19.8
2016-Jul-15 19:00N 39°43' W 151°57'0 0.0 1032.5 19.6
2016-Jul-15 18:00N 39°43' W 151°57'0 0.1 1032.4 19.5
2016-Jul-15 17:00N 39°43' W 151°57'0 0.2 1032.3 19.5
2016-Jul-15 15:00N 39°43' W 151°56'0 0.3 1031.6 19.5
2016-Jul-15 14:00N 39°43' W 151°57'1 0.4 1031.4 19.5
2016-Jul-15 12:00N 39°42' W 151°57'0 0.0 1031.4 19.6
2016-Jul-15 09:00N 39°42' W 151°57'0 0.0 1031.5 19.6
2016-Jul-15 08:00N 39°42' W 151°57'0 0.2 1031.4 19.6
2016-Jul-15 07:00N 39°42' W 151°57'0 0.3 1031.1 19.6
2016-Jul-15 06:00N 39°42' W 151°57'0 0.1 1030.4 19.6
2016-Jul-15 05:00N 39°42' W 151°57'0 0.2 1029.8 19.7
2016-Jul-15 04:00N 39°42' W 151°57'1 0.6 1029.5 19.8
2016-Jul-15 03:00N 39°42' W 151°58'0 0.3 1029.1 19.8
2016-Jul-15 02:00N 39°42' W 151°57'1 0.5 1029.1 19.8
2016-Jul-15 01:00N 39°41' W 151°58'0 0.1 1029.2 19.7
2016-Jul-15 00:00N 39°41' W 151°58'1 0.4 1029.2 19.6
2016-Jul-14 22:00N 39°41' W 151°59'1 1.1 1029.4 19.4
2016-Jul-14 21:00N 39°40' W 152°00'0 0.0 1029.4 19.3
2016-Jul-14 20:00N 39°40' W 152°00'0 0.3 1029.3 19.2
2016-Jul-14 19:00N 39°40' W 151°60'1 0.9 1028.8 19.2
2016-Jul-14 18:00N 39°39' W 152°00'0 0.3 1028.6 19.2
2016-Jul-14 17:00N 39°39' W 152°00'0 0.1 1028.1 19.2
2016-Jul-14 16:00N 39°39' W 152°00'0 0.4 1027.7 19.1
2016-Jul-14 15:00N 39°39' W 152°00'0 0.3 1027.3 19.1
2016-Jul-14 14:00N 39°39' W 152°00'2 0.8 1026.9 19.2
2016-Jul-14 12:00N 39°39' W 152°02'0 0.1 1027.0 19.2
2016-Jul-14 08:00N 39°39' W 152°02'0 0.5 1026.2 19.4
2016-Jul-14 07:00N 39°39' W 152°03'1 0.8 1025.8 19.4
2016-Jul-14 06:00N 39°39' W 152°04'1 0.7 1025.2 19.4
2016-Jul-14 04:00N 39°39' W 152°05'0 0.3 1024.3 19.4
2016-Jul-14 03:00N 39°39' W 152°06'1 1.2 1024.1 19.4
2016-Jul-14 02:00N 39°38' W 152°07'1 0.7 1024.1 19.4
2016-Jul-14 00:00N 39°37' W 152°08'   1024.3 19.3

Dump ship's entire track history